createdAt,value
2017-09-04T00:00:25.363Z,0.00
2017-09-04T00:01:25.439Z,0.00
2017-09-04T00:02:25.979Z,0.00
2017-09-04T00:03:25.256Z,0.00
2017-09-04T00:04:25.756Z,0.00
2017-09-04T00:05:25.526Z,0.00
2017-09-04T00:06:25.763Z,0.00
2017-09-04T00:07:25.802Z,0.00
2017-09-04T00:08:25.920Z,0.00
2017-09-04T00:09:25.946Z,0.00
2017-09-04T00:10:26.456Z,0.00
2017-09-04T00:11:25.701Z,0.00
2017-09-04T00:12:25.992Z,0.00
2017-09-04T00:13:26.059Z,0.00
2017-09-04T00:14:25.835Z,0.00
2017-09-04T00:15:25.797Z,0.00
2017-09-04T00:16:26.137Z,0.00
2017-09-04T00:17:26.036Z,0.00
2017-09-04T00:18:26.267Z,0.00
2017-09-04T00:19:26.199Z,0.00
2017-09-04T00:20:26.055Z,0.00
2017-09-04T00:21:26.223Z,0.00
2017-09-04T00:22:26.215Z,0.00
2017-09-04T00:23:26.770Z,0.00
2017-09-04T00:24:26.398Z,0.00
2017-09-04T00:25:26.428Z,0.00
2017-09-04T00:26:26.713Z,0.00
2017-09-04T00:27:26.442Z,0.00
2017-09-04T00:28:26.724Z,0.00
2017-09-04T00:29:26.577Z,0.00
2017-09-04T00:30:26.647Z,0.00
2017-09-04T00:31:26.990Z,0.00
2017-09-04T00:32:26.629Z,0.00
2017-09-04T00:33:27.126Z,0.00
2017-09-04T00:34:27.120Z,0.00
2017-09-04T00:35:26.898Z,0.00
2017-09-04T00:36:27.257Z,0.00
2017-09-04T00:37:26.956Z,0.00
2017-09-04T00:38:26.997Z,0.00
2017-09-04T00:39:27.658Z,0.00
2017-09-04T00:40:27.283Z,0.00
2017-09-04T00:41:27.521Z,0.00
2017-09-04T00:42:27.540Z,0.00
2017-09-04T00:43:27.439Z,0.00
2017-09-04T00:44:27.718Z,0.00
2017-09-04T00:45:27.367Z,0.00
2017-09-04T00:46:27.747Z,0.00
2017-09-04T00:47:27.441Z,0.00
2017-09-04T00:48:27.703Z,0.00
2017-09-04T00:49:27.866Z,0.00
2017-09-04T00:50:27.983Z,0.00
2017-09-04T00:51:27.632Z,0.00
2017-09-04T00:52:28.095Z,0.00
2017-09-04T00:53:27.722Z,0.00
2017-09-04T00:54:28.079Z,0.00
2017-09-04T00:55:27.739Z,0.00
2017-09-04T00:56:27.989Z,0.00
2017-09-04T00:57:27.906Z,0.00
2017-09-04T00:58:27.915Z,0.00
2017-09-04T00:59:28.647Z,0.00
2017-09-04T01:00:28.443Z,0.00
2017-09-04T01:01:28.396Z,0.00
2017-09-04T01:02:28.206Z,0.00
2017-09-04T01:03:28.303Z,0.00
2017-09-04T01:04:28.434Z,0.00
2017-09-04T01:05:28.722Z,0.00
2017-09-04T01:06:28.516Z,0.00
2017-09-04T01:07:28.335Z,0.00
2017-09-04T01:08:28.697Z,0.00
2017-09-04T01:09:28.574Z,0.00
2017-09-04T01:10:29.062Z,0.00
2017-09-04T01:11:28.558Z,0.00
2017-09-04T01:12:29.029Z,0.00
2017-09-04T01:13:28.681Z,0.00
2017-09-04T01:14:28.894Z,0.00
2017-09-04T01:15:29.178Z,0.00
2017-09-04T01:16:28.889Z,0.00
2017-09-04T01:17:28.972Z,0.00
2017-09-04T01:18:29.133Z,0.00
2017-09-04T01:19:29.134Z,0.00
2017-09-04T01:20:29.243Z,0.00
2017-09-04T01:21:29.057Z,0.00
2017-09-04T01:22:29.210Z,0.00
2017-09-04T01:23:29.367Z,0.00
2017-09-04T01:24:29.234Z,0.00
2017-09-04T01:25:29.232Z,0.00
2017-09-04T01:26:29.559Z,0.00
2017-09-04T01:27:29.587Z,0.00
2017-09-04T01:28:29.581Z,0.00
2017-09-04T01:29:29.378Z,0.00
2017-09-04T01:30:29.551Z,0.00
2017-09-04T01:31:29.603Z,0.00
2017-09-04T01:32:29.618Z,0.00
2017-09-04T01:33:29.667Z,0.00
2017-09-04T01:34:29.930Z,0.00
2017-09-04T01:35:29.873Z,0.00
2017-09-04T01:36:30.132Z,0.00
2017-09-04T01:37:29.926Z,0.00
2017-09-04T01:38:29.894Z,0.00
2017-09-04T01:39:29.784Z,0.00
2017-09-04T01:40:29.957Z,0.00
2017-09-04T01:41:30.200Z,0.00
2017-09-04T01:42:30.082Z,0.00
2017-09-04T01:43:30.626Z,0.00
2017-09-04T01:44:30.690Z,0.00
2017-09-04T01:45:30.614Z,0.00
2017-09-04T01:46:30.475Z,0.00
2017-09-04T01:47:30.319Z,0.00
2017-09-04T01:48:30.504Z,0.00
2017-09-04T01:49:30.651Z,0.00
2017-09-04T01:50:30.671Z,0.00
2017-09-04T01:51:30.662Z,0.00
2017-09-04T01:52:30.700Z,0.00
2017-09-04T01:53:30.998Z,0.00
2017-09-04T01:54:30.919Z,0.00
2017-09-04T01:55:30.771Z,0.00
2017-09-04T01:56:30.706Z,0.00
2017-09-04T01:57:31.048Z,0.00
2017-09-04T01:58:30.838Z,0.00
2017-09-04T01:59:30.914Z,0.00
2017-09-04T02:00:31.207Z,0.00
2017-09-04T02:01:31.346Z,0.00
2017-09-04T02:02:31.498Z,0.00
2017-09-04T02:03:31.242Z,0.00
2017-09-04T02:04:31.072Z,0.00
2017-09-04T02:05:31.152Z,0.00
2017-09-04T02:06:31.156Z,0.00
2017-09-04T02:07:31.431Z,0.00
2017-09-04T02:08:31.382Z,0.00
2017-09-04T02:09:31.619Z,0.00
2017-09-04T02:10:31.400Z,0.00
2017-09-04T02:11:31.386Z,0.00
2017-09-04T02:12:31.838Z,0.00
2017-09-04T02:13:31.616Z,0.00
2017-09-04T02:14:31.554Z,0.00
2017-09-04T02:15:31.644Z,0.00
2017-09-04T02:16:31.864Z,0.00
2017-09-04T02:17:31.805Z,0.00
2017-09-04T02:18:32.040Z,0.00
2017-09-04T02:19:31.850Z,0.00
2017-09-04T02:20:32.082Z,0.00
2017-09-04T02:21:31.855Z,0.00
2017-09-04T02:22:32.056Z,0.00
2017-09-04T02:23:32.144Z,0.00
2017-09-04T02:24:32.061Z,0.00
2017-09-04T02:25:32.039Z,0.00
2017-09-04T02:26:32.101Z,0.00
2017-09-04T02:27:32.221Z,0.00
2017-09-04T02:28:32.806Z,0.00
2017-09-04T02:29:32.479Z,0.00
2017-09-04T02:30:32.478Z,0.00
2017-09-04T02:31:32.463Z,0.00
2017-09-04T02:32:32.462Z,0.00
2017-09-04T02:33:32.852Z,0.00
2017-09-04T02:34:32.665Z,0.00
2017-09-04T02:35:32.964Z,0.00
2017-09-04T02:36:32.549Z,0.00
2017-09-04T02:37:32.892Z,0.00
2017-09-04T02:38:33.246Z,0.00
2017-09-04T02:39:33.030Z,0.00
2017-09-04T02:40:32.796Z,0.00
2017-09-04T02:41:33.042Z,0.00
2017-09-04T02:42:32.880Z,0.00
2017-09-04T02:43:32.975Z,0.00
2017-09-04T02:44:33.276Z,0.00
2017-09-04T02:45:33.369Z,0.00
2017-09-04T02:46:33.255Z,0.00
2017-09-04T02:47:33.717Z,0.00
2017-09-04T02:48:33.215Z,0.00
2017-09-04T02:49:33.662Z,0.00
2017-09-04T02:50:33.679Z,0.00
2017-09-04T02:51:33.613Z,0.00
2017-09-04T02:52:33.800Z,0.00
2017-09-04T02:53:33.762Z,0.00
2017-09-04T02:54:33.822Z,0.00
2017-09-04T02:55:33.677Z,0.00
2017-09-04T02:56:33.698Z,0.00
2017-09-04T02:57:33.918Z,0.00
2017-09-04T02:58:33.652Z,0.00
2017-09-04T02:59:34.346Z,0.00
2017-09-04T03:00:34.058Z,0.00
2017-09-04T03:01:33.848Z,0.00
2017-09-04T03:02:33.825Z,0.00
2017-09-04T03:03:33.932Z,0.00
2017-09-04T03:04:34.090Z,0.00
2017-09-04T03:05:34.341Z,0.00
2017-09-04T03:06:34.220Z,0.00
2017-09-04T03:07:34.107Z,0.00
2017-09-04T03:08:34.085Z,0.00
2017-09-04T03:09:34.393Z,0.00
2017-09-04T03:10:34.722Z,0.00
2017-09-04T03:11:34.270Z,0.00
2017-09-04T03:12:34.462Z,0.00
2017-09-04T03:13:34.651Z,0.00
2017-09-04T03:14:34.751Z,0.00
2017-09-04T03:15:34.934Z,0.00
2017-09-04T03:16:34.486Z,0.00
2017-09-04T03:17:34.549Z,0.00
2017-09-04T03:18:34.638Z,0.00
2017-09-04T03:19:35.078Z,0.00
2017-09-04T03:20:35.234Z,0.00
2017-09-04T03:21:34.888Z,0.00
2017-09-04T03:22:34.979Z,0.00
2017-09-04T03:23:35.256Z,0.00
2017-09-04T03:24:34.854Z,0.00
2017-09-04T03:25:35.330Z,0.00
2017-09-04T03:26:34.976Z,0.00
2017-09-04T03:27:35.388Z,0.00
2017-09-04T03:28:35.435Z,0.00
2017-09-04T03:29:35.261Z,0.00
2017-09-04T03:30:35.614Z,0.00
2017-09-04T03:31:35.278Z,0.00
2017-09-04T03:32:35.688Z,0.00
2017-09-04T03:33:35.695Z,0.00
2017-09-04T03:34:36.126Z,0.00
2017-09-04T03:35:35.861Z,0.00
2017-09-04T03:36:35.590Z,0.00
2017-09-04T03:37:36.290Z,0.00
2017-09-04T03:38:36.337Z,0.00
2017-09-04T03:39:35.874Z,0.00
2017-09-04T03:40:36.220Z,0.00
2017-09-04T03:41:36.354Z,0.00
2017-09-04T03:42:36.156Z,0.00
2017-09-04T03:43:35.938Z,0.00
2017-09-04T03:44:36.037Z,0.00
2017-09-04T03:45:36.166Z,0.00
2017-09-04T03:46:36.026Z,0.00
2017-09-04T03:47:36.500Z,0.00
2017-09-04T03:48:35.995Z,0.00
2017-09-04T03:49:36.095Z,0.00
2017-09-04T03:50:36.406Z,0.00
2017-09-04T03:51:36.187Z,0.00
2017-09-04T03:52:36.544Z,0.00
2017-09-04T03:53:36.879Z,0.00
2017-09-04T03:54:36.740Z,0.00
2017-09-04T03:55:36.328Z,0.00
2017-09-04T03:56:36.481Z,0.00
2017-09-04T03:57:37.197Z,0.00
2017-09-04T03:58:36.706Z,0.00
2017-09-04T03:59:37.022Z,0.00
2017-09-04T04:00:36.706Z,0.00
2017-09-04T04:01:36.946Z,0.00
2017-09-04T04:02:37.262Z,0.00
2017-09-04T04:03:36.972Z,0.00
2017-09-04T04:04:37.175Z,0.00
2017-09-04T04:05:36.792Z,0.00
2017-09-04T04:06:36.865Z,0.00
2017-09-04T04:07:37.426Z,0.00
2017-09-04T04:08:37.009Z,0.00
2017-09-04T04:09:37.253Z,0.00
2017-09-04T04:10:37.101Z,0.00
2017-09-04T04:11:37.309Z,0.00
2017-09-04T04:12:37.427Z,0.00
2017-09-04T04:13:37.413Z,0.00
2017-09-04T04:14:37.353Z,0.00
2017-09-04T04:15:37.479Z,0.00
2017-09-04T04:16:37.505Z,0.00
2017-09-04T04:17:37.504Z,0.00
2017-09-04T04:18:37.849Z,0.00
2017-09-04T04:19:37.405Z,0.00
2017-09-04T04:20:37.579Z,0.00
2017-09-04T04:21:37.866Z,0.00
2017-09-04T04:22:37.807Z,0.00
2017-09-04T04:23:38.046Z,0.00
2017-09-04T04:24:37.839Z,0.00
2017-09-04T04:25:37.983Z,0.00
2017-09-04T04:26:37.799Z,0.00
2017-09-04T04:27:37.890Z,0.00
2017-09-04T04:28:37.969Z,0.00
2017-09-04T04:29:38.493Z,0.00
2017-09-04T04:30:38.335Z,0.00
2017-09-04T04:31:38.153Z,0.00
2017-09-04T04:32:38.581Z,0.00
2017-09-04T04:33:38.477Z,0.00
2017-09-04T04:34:38.557Z,0.00
2017-09-04T04:35:38.233Z,0.00
2017-09-04T04:36:38.483Z,5.63
2017-09-04T04:37:38.361Z,5.63
2017-09-04T04:38:38.560Z,5.63
2017-09-04T04:39:38.651Z,5.63
2017-09-04T04:40:38.833Z,5.63
2017-09-04T04:41:38.598Z,5.63
2017-09-04T04:42:39.367Z,11.25
2017-09-04T04:43:38.838Z,11.25
2017-09-04T04:44:39.088Z,11.25
2017-09-04T04:45:39.017Z,11.25
2017-09-04T04:46:38.926Z,16.88
2017-09-04T04:47:38.840Z,16.88
2017-09-04T04:48:38.913Z,16.88
2017-09-04T04:49:39.361Z,16.88
2017-09-04T04:50:39.595Z,22.50
2017-09-04T04:51:39.238Z,22.50
2017-09-04T04:52:39.077Z,22.50
2017-09-04T04:53:39.160Z,28.13
2017-09-04T04:54:39.513Z,28.13
2017-09-04T04:55:39.585Z,28.13
2017-09-04T04:56:39.536Z,33.75
2017-09-04T04:57:39.453Z,33.75
2017-09-04T04:58:39.955Z,33.75
2017-09-04T04:59:39.710Z,39.38
2017-09-04T05:00:39.963Z,39.38
2017-09-04T05:01:39.724Z,45.00
2017-09-04T05:02:39.571Z,45.00
2017-09-04T05:03:39.599Z,50.63
2017-09-04T05:04:39.677Z,50.63
2017-09-04T05:05:39.830Z,56.25
2017-09-04T05:06:39.745Z,56.25
2017-09-04T05:07:39.933Z,61.88
2017-09-04T05:08:39.978Z,67.50
2017-09-04T05:09:39.941Z,67.50
2017-09-04T05:10:40.234Z,73.13
2017-09-04T05:11:40.313Z,73.13
2017-09-04T05:12:40.170Z,78.75
2017-09-04T05:13:40.034Z,78.75
2017-09-04T05:14:40.212Z,78.75
2017-09-04T05:15:40.545Z,78.75
2017-09-04T05:16:40.536Z,84.38
2017-09-04T05:17:40.328Z,90.00
2017-09-04T05:18:40.521Z,90.00
2017-09-04T05:19:40.595Z,90.00
2017-09-04T05:20:41.098Z,95.63
2017-09-04T05:21:40.800Z,95.63
2017-09-04T05:22:40.887Z,101.25
2017-09-04T05:23:40.641Z,101.25
2017-09-04T05:24:41.136Z,101.25
2017-09-04T05:25:40.852Z,106.88
2017-09-04T05:26:41.305Z,112.50
2017-09-04T05:27:40.774Z,118.13
2017-09-04T05:28:41.101Z,118.13
2017-09-04T05:29:41.060Z,123.75
2017-09-04T05:30:40.951Z,129.38
2017-09-04T05:31:41.338Z,129.38
2017-09-04T05:32:40.982Z,129.38
2017-09-04T05:33:41.026Z,135.00
2017-09-04T05:34:41.327Z,135.00
2017-09-04T05:35:41.071Z,135.00
2017-09-04T05:36:41.809Z,135.00
2017-09-04T05:37:41.257Z,140.63
2017-09-04T05:38:41.304Z,140.63
2017-09-04T05:39:41.421Z,146.25
2017-09-04T05:40:41.713Z,146.25
2017-09-04T05:41:41.877Z,151.88
2017-09-04T05:42:41.521Z,157.50
2017-09-04T05:43:41.828Z,157.50
2017-09-04T05:44:41.531Z,157.50
2017-09-04T05:45:41.631Z,163.13
2017-09-04T05:46:41.767Z,163.13
2017-09-04T05:47:41.743Z,168.75
2017-09-04T05:48:41.850Z,168.75
2017-09-04T05:49:41.878Z,168.75
2017-09-04T05:50:42.009Z,174.38
2017-09-04T05:51:42.093Z,180.00
2017-09-04T05:52:41.945Z,185.63
2017-09-04T05:53:42.087Z,185.63
2017-09-04T05:54:42.213Z,185.63
2017-09-04T05:55:42.771Z,185.63
2017-09-04T05:56:42.202Z,191.25
2017-09-04T05:57:43.140Z,191.25
2017-09-04T05:58:42.200Z,196.88
2017-09-04T05:59:42.920Z,196.88
2017-09-04T06:00:42.375Z,202.50
2017-09-04T06:01:42.500Z,213.75
2017-09-04T06:02:42.957Z,225.00
2017-09-04T06:03:42.663Z,230.63
2017-09-04T06:04:42.918Z,241.88
2017-09-04T06:05:43.031Z,253.13
2017-09-04T06:06:42.728Z,258.75
2017-09-04T06:07:43.028Z,258.75
2017-09-04T06:08:42.677Z,258.75
2017-09-04T06:09:43.053Z,270.00
2017-09-04T06:10:42.964Z,275.63
2017-09-04T06:11:43.015Z,286.88
2017-09-04T06:12:43.642Z,292.50
2017-09-04T06:13:42.939Z,286.88
2017-09-04T06:14:43.459Z,292.50
2017-09-04T06:15:43.119Z,303.75
2017-09-04T06:16:43.308Z,320.63
2017-09-04T06:17:43.583Z,309.38
2017-09-04T06:18:43.362Z,298.13
2017-09-04T06:19:43.424Z,303.75
2017-09-04T06:20:43.536Z,320.63
2017-09-04T06:21:43.776Z,343.13
2017-09-04T06:22:43.383Z,348.75
2017-09-04T06:23:43.743Z,337.50
2017-09-04T06:24:43.441Z,348.75
2017-09-04T06:25:43.830Z,348.75
2017-09-04T06:26:43.926Z,337.50
2017-09-04T06:27:43.604Z,315.00
2017-09-04T06:28:44.012Z,309.38
2017-09-04T06:29:43.774Z,315.00
2017-09-04T06:30:43.918Z,331.88
2017-09-04T06:31:44.233Z,348.75
2017-09-04T06:32:44.003Z,348.75
2017-09-04T06:33:44.006Z,326.25
2017-09-04T06:34:43.979Z,303.75
2017-09-04T06:35:44.260Z,309.38
2017-09-04T06:36:44.017Z,309.38
2017-09-04T06:37:44.339Z,320.63
2017-09-04T06:38:44.471Z,320.63
2017-09-04T06:39:44.509Z,326.25
2017-09-04T06:40:44.327Z,343.13
2017-09-04T06:41:44.368Z,365.63
2017-09-04T06:42:44.346Z,376.88
2017-09-04T06:43:44.524Z,438.75
2017-09-04T06:44:44.518Z,466.88
2017-09-04T06:45:44.700Z,483.75
2017-09-04T06:46:44.659Z,511.88
2017-09-04T06:47:45.002Z,511.88
2017-09-04T06:48:44.741Z,489.38
2017-09-04T06:49:44.851Z,483.75
2017-09-04T06:50:44.690Z,528.75
2017-09-04T06:51:45.037Z,556.88
2017-09-04T06:52:45.454Z,568.13
2017-09-04T06:53:44.989Z,596.25
2017-09-04T06:54:45.939Z,607.50
2017-09-04T06:55:44.965Z,658.13
2017-09-04T06:56:45.039Z,646.88
2017-09-04T06:57:45.223Z,669.38
2017-09-04T06:58:45.276Z,686.25
2017-09-04T06:59:45.771Z,697.50
2017-09-04T07:00:45.526Z,742.50
2017-09-04T07:01:45.450Z,545.63
2017-09-04T07:02:45.929Z,748.13
2017-09-04T07:03:45.427Z,781.88
2017-09-04T07:04:45.860Z,826.88
2017-09-04T07:05:45.527Z,821.25
2017-09-04T07:06:45.524Z,838.13
2017-09-04T07:07:45.983Z,821.25
2017-09-04T07:08:45.722Z,821.25
2017-09-04T07:09:46.179Z,849.38
2017-09-04T07:10:45.856Z,787.50
2017-09-04T07:11:45.817Z,787.50
2017-09-04T07:12:45.825Z,866.25
2017-09-04T07:13:46.469Z,849.38
2017-09-04T07:14:46.374Z,860.63
2017-09-04T07:15:46.032Z,866.25
2017-09-04T07:16:46.203Z,866.25
2017-09-04T07:17:46.511Z,883.13
2017-09-04T07:18:46.407Z,888.75
2017-09-04T07:19:46.262Z,900.00
2017-09-04T07:20:46.698Z,905.63
2017-09-04T07:21:46.283Z,826.88
2017-09-04T07:22:46.346Z,821.25
2017-09-04T07:23:46.352Z,838.13
2017-09-04T07:24:46.452Z,877.50
2017-09-04T07:25:47.023Z,916.88
2017-09-04T07:26:46.977Z,911.25
2017-09-04T07:27:46.612Z,905.63
2017-09-04T07:28:46.746Z,956.25
2017-09-04T07:29:46.711Z,984.38
2017-09-04T07:30:47.335Z,995.63
2017-09-04T07:31:46.793Z,990.00
2017-09-04T07:32:46.911Z,1035.00
2017-09-04T07:33:46.893Z,1057.50
2017-09-04T07:34:47.049Z,1080.00
2017-09-04T07:35:47.529Z,1164.38
2017-09-04T07:36:47.207Z,1220.63
2017-09-04T07:37:47.238Z,1321.88
2017-09-04T07:38:47.155Z,1372.50
2017-09-04T07:39:47.280Z,1406.25
2017-09-04T07:40:47.733Z,1468.13
2017-09-04T07:41:47.826Z,1535.63
2017-09-04T07:42:47.372Z,1485.00
2017-09-04T07:43:47.551Z,1248.75
2017-09-04T07:44:47.743Z,1108.13
2017-09-04T07:45:47.559Z,922.50
2017-09-04T07:46:47.772Z,725.63
2017-09-04T07:47:47.715Z,697.50
2017-09-04T07:48:47.977Z,686.25
2017-09-04T07:49:47.830Z,849.38
2017-09-04T07:50:47.802Z,1361.25
2017-09-04T07:51:48.256Z,1035.00
2017-09-04T07:52:48.072Z,1057.50
2017-09-04T07:53:48.373Z,1108.13
2017-09-04T07:54:48.059Z,961.88
2017-09-04T07:55:48.204Z,877.50
2017-09-04T07:56:48.595Z,815.63
2017-09-04T07:57:48.363Z,905.63
2017-09-04T07:58:48.433Z,1170.00
2017-09-04T07:59:48.379Z,871.88
2017-09-04T08:00:48.518Z,798.75
2017-09-04T08:01:48.766Z,855.00
2017-09-04T08:02:48.696Z,871.88
2017-09-04T08:03:48.530Z,1620.00
2017-09-04T08:04:48.719Z,1012.50
2017-09-04T08:05:49.031Z,748.13
2017-09-04T08:06:49.059Z,748.13
2017-09-04T08:07:49.439Z,770.63
2017-09-04T08:08:48.757Z,736.88
2017-09-04T08:09:49.010Z,770.63
2017-09-04T08:10:49.003Z,894.38
2017-09-04T08:11:49.302Z,1530.00
2017-09-04T08:12:49.287Z,1715.63
2017-09-04T08:13:49.375Z,1940.63
2017-09-04T08:14:49.145Z,1805.63
2017-09-04T08:15:49.622Z,1181.25
2017-09-04T08:16:49.400Z,849.38
2017-09-04T08:17:49.744Z,736.88
2017-09-04T08:18:49.333Z,815.63
2017-09-04T08:19:49.744Z,1546.88
2017-09-04T08:20:49.815Z,1698.75
2017-09-04T08:21:49.476Z,1372.50
2017-09-04T08:22:49.780Z,1665.00
2017-09-04T08:23:49.699Z,1344.38
2017-09-04T08:24:49.624Z,1496.25
2017-09-04T08:25:49.813Z,1434.38
2017-09-04T08:26:49.775Z,1440.00
2017-09-04T08:27:50.285Z,1558.13
2017-09-04T08:28:49.865Z,1620.00
2017-09-04T08:29:49.957Z,1625.63
2017-09-04T08:30:50.467Z,1541.25
2017-09-04T08:31:50.251Z,1625.63
2017-09-04T08:32:50.451Z,1603.13
2017-09-04T08:33:50.301Z,1507.50
2017-09-04T08:34:50.152Z,1586.25
2017-09-04T08:35:50.559Z,1620.00
2017-09-04T08:36:50.592Z,1591.88
2017-09-04T08:37:51.144Z,1569.38
2017-09-04T08:38:50.605Z,1518.75
2017-09-04T08:39:51.060Z,1496.25
2017-09-04T08:40:50.616Z,1490.63
2017-09-04T08:41:50.686Z,1468.13
2017-09-04T08:42:50.881Z,1434.38
2017-09-04T08:43:51.028Z,1366.88
2017-09-04T08:44:50.923Z,1383.75
2017-09-04T08:45:50.691Z,1400.63
2017-09-04T08:46:50.856Z,1366.88
2017-09-04T08:47:50.840Z,1417.50
2017-09-04T08:48:51.133Z,1423.13
2017-09-04T08:49:51.052Z,1400.63
2017-09-04T08:50:51.024Z,1389.38
2017-09-04T08:51:51.012Z,1350.00
2017-09-04T08:52:51.258Z,1293.75
2017-09-04T08:53:51.790Z,1282.50
2017-09-04T08:54:51.242Z,1271.25
2017-09-04T08:55:51.288Z,1260.00
2017-09-04T08:56:51.526Z,1276.88
2017-09-04T08:57:51.466Z,1288.13
2017-09-04T08:58:51.619Z,1305.00
2017-09-04T08:59:51.985Z,1327.50
2017-09-04T09:00:51.630Z,1350.00
2017-09-04T09:01:52.262Z,1344.38
2017-09-04T09:02:51.720Z,1344.38
2017-09-04T09:03:52.079Z,1344.38
2017-09-04T09:04:52.011Z,1350.00
2017-09-04T09:05:51.880Z,1327.50
2017-09-04T09:06:51.821Z,1316.25
2017-09-04T09:07:52.124Z,1299.38
2017-09-04T09:08:52.126Z,1293.75
2017-09-04T09:09:52.225Z,1299.38
2017-09-04T09:10:52.194Z,1316.25
2017-09-04T09:11:52.376Z,1355.63
2017-09-04T09:12:52.403Z,1400.63
2017-09-04T09:13:52.522Z,1473.75
2017-09-04T09:14:52.711Z,1575.00
2017-09-04T09:15:52.568Z,1681.88
2017-09-04T09:16:52.590Z,1755.00
2017-09-04T09:17:52.474Z,1805.63
2017-09-04T09:18:52.709Z,1822.50
2017-09-04T09:19:52.763Z,1895.63
2017-09-04T09:20:52.998Z,1963.13
2017-09-04T09:21:52.727Z,2053.13
2017-09-04T09:22:53.059Z,2115.00
2017-09-04T09:23:52.896Z,2193.75
2017-09-04T09:24:53.062Z,2244.38
2017-09-04T09:25:53.320Z,2295.00
2017-09-04T09:26:53.215Z,2340.00
2017-09-04T09:27:53.111Z,2379.38
2017-09-04T09:28:53.022Z,2295.00
2017-09-04T09:29:53.135Z,2548.13
2017-09-04T09:30:53.648Z,2587.50
2017-09-04T09:31:53.395Z,2694.38
2017-09-04T09:32:53.219Z,2761.88
2017-09-04T09:33:53.408Z,2818.13
2017-09-04T09:34:53.770Z,2851.88
2017-09-04T09:35:53.588Z,2362.50
2017-09-04T09:36:53.786Z,2649.38
2017-09-04T09:37:53.856Z,3037.50
2017-09-04T09:38:53.769Z,3071.25
2017-09-04T09:39:54.042Z,3054.38
2017-09-04T09:40:53.871Z,3015.00
2017-09-04T09:41:54.228Z,2981.25
2017-09-04T09:42:53.861Z,2925.00
2017-09-04T09:43:53.830Z,2896.88
2017-09-04T09:44:53.898Z,2880.00
2017-09-04T09:45:54.217Z,2863.13
2017-09-04T09:46:54.483Z,2880.00
2017-09-04T09:47:54.458Z,2902.50
2017-09-04T09:48:54.165Z,2930.63
2017-09-04T09:49:54.148Z,2936.25
2017-09-04T09:50:54.224Z,2913.75
2017-09-04T09:51:54.572Z,2880.00
2017-09-04T09:52:54.868Z,2930.63
2017-09-04T09:53:54.766Z,2970.00
2017-09-04T09:54:54.423Z,2947.50
2017-09-04T09:55:54.623Z,3076.88
2017-09-04T09:56:54.983Z,3144.38
2017-09-04T09:57:54.601Z,3256.88
2017-09-04T09:58:54.759Z,3290.63
2017-09-04T09:59:54.793Z,3352.50
2017-09-04T10:00:55.115Z,3358.13
2017-09-04T10:01:55.255Z,3391.88
2017-09-04T10:02:55.054Z,3442.50
2017-09-04T10:03:55.151Z,3481.88
2017-09-04T10:04:55.332Z,3487.50
2017-09-04T10:05:55.263Z,3510.00
2017-09-04T10:06:55.468Z,3543.75
2017-09-04T10:07:55.368Z,3543.75
2017-09-04T10:08:55.733Z,3504.38
2017-09-04T10:09:55.262Z,3408.75
2017-09-04T10:10:55.421Z,3521.25
2017-09-04T10:11:55.607Z,3465.00
2017-09-04T10:12:55.924Z,3397.50
2017-09-04T10:13:56.073Z,3448.13
2017-09-04T10:14:56.181Z,3498.75
2017-09-04T10:15:56.225Z,3526.88
2017-09-04T10:16:56.089Z,3487.50
2017-09-04T10:17:55.812Z,3375.00
2017-09-04T10:18:55.917Z,3442.50
2017-09-04T10:19:56.143Z,3358.13
2017-09-04T10:20:55.837Z,3183.75
2017-09-04T10:21:56.082Z,3043.13
2017-09-04T10:22:56.425Z,2536.88
2017-09-04T10:23:56.002Z,2857.50
2017-09-04T10:24:56.466Z,2666.25
2017-09-04T10:25:56.342Z,2593.13
2017-09-04T10:26:56.410Z,2469.38
2017-09-04T10:27:56.353Z,2373.75
2017-09-04T10:28:56.887Z,2323.13
2017-09-04T10:29:56.443Z,2250.00
2017-09-04T10:30:56.638Z,2171.25
2017-09-04T10:31:56.515Z,2053.13
2017-09-04T10:32:56.649Z,1968.75
2017-09-04T10:33:57.111Z,1929.38
2017-09-04T10:34:56.643Z,1918.13
2017-09-04T10:35:56.666Z,1906.88
2017-09-04T10:36:56.829Z,1895.63
2017-09-04T10:37:56.926Z,1873.13
2017-09-04T10:38:57.089Z,1867.50
2017-09-04T10:39:57.082Z,1878.75
2017-09-04T10:40:57.126Z,1906.88
2017-09-04T10:41:57.045Z,1935.00
2017-09-04T10:42:57.023Z,1963.13
2017-09-04T10:43:57.612Z,2019.38
2017-09-04T10:44:57.254Z,2064.38
2017-09-04T10:45:57.183Z,2120.63
2017-09-04T10:46:57.290Z,2165.63
2017-09-04T10:47:57.372Z,2199.38
2017-09-04T10:48:57.720Z,2244.38
2017-09-04T10:49:58.130Z,2266.88
2017-09-04T10:50:57.606Z,2289.38
2017-09-04T10:51:57.605Z,2306.25
2017-09-04T10:52:57.672Z,2317.50
2017-09-04T10:53:58.005Z,2323.13
2017-09-04T10:54:57.690Z,2340.00
2017-09-04T10:55:57.849Z,2373.75
2017-09-04T10:56:58.091Z,2413.13
2017-09-04T10:57:57.868Z,2452.50
2017-09-04T10:58:58.087Z,2525.63
2017-09-04T10:59:57.984Z,2593.13
2017-09-04T11:00:58.041Z,2694.38
2017-09-04T11:01:58.045Z,2790.00
2017-09-04T11:02:58.585Z,2891.25
2017-09-04T11:03:58.381Z,2986.88
2017-09-04T11:04:58.675Z,3076.88
2017-09-04T11:05:58.401Z,3150.00
2017-09-04T11:06:58.337Z,3217.50
2017-09-04T11:07:59.045Z,3335.63
2017-09-04T11:08:58.676Z,3436.88
2017-09-04T11:09:58.589Z,3521.25
2017-09-04T11:10:58.696Z,3645.00
2017-09-04T11:11:58.746Z,3847.50
2017-09-04T11:12:58.685Z,3448.13
2017-09-04T11:13:58.836Z,2930.63
2017-09-04T11:14:59.149Z,3549.38
2017-09-04T11:15:59.263Z,3802.50
2017-09-04T11:16:58.976Z,3279.38
2017-09-04T11:17:59.154Z,2761.88
2017-09-04T11:18:59.026Z,3268.13
2017-09-04T11:19:59.697Z,2632.50
2017-09-04T11:20:59.150Z,1856.25
2017-09-04T11:21:59.401Z,1923.75
2017-09-04T11:22:59.513Z,2210.63
2017-09-04T11:23:59.725Z,1861.88
2017-09-04T11:24:59.884Z,1918.13
2017-09-04T11:25:59.844Z,1766.25
2017-09-04T11:26:59.720Z,1704.38
2017-09-04T11:27:59.536Z,1569.38
2017-09-04T11:28:59.901Z,1485.00
2017-09-04T11:30:00.159Z,1479.38
2017-09-04T11:30:59.678Z,1411.88
2017-09-04T11:31:59.719Z,1456.88
2017-09-04T11:32:59.819Z,1428.75
2017-09-04T11:33:59.958Z,1496.25
2017-09-04T11:35:00.211Z,1546.88
2017-09-04T11:36:00.228Z,1524.38
2017-09-04T11:37:00.054Z,1524.38
2017-09-04T11:38:00.575Z,1485.00
2017-09-04T11:39:00.333Z,1518.75
2017-09-04T11:40:00.970Z,1496.25
2017-09-04T11:41:00.601Z,1485.00
2017-09-04T11:42:00.703Z,1456.88
2017-09-04T11:43:00.567Z,1580.63
2017-09-04T11:44:00.620Z,1485.00
2017-09-04T11:45:00.617Z,2193.75
2017-09-04T11:46:00.901Z,1501.88
2017-09-04T11:47:00.739Z,1580.63
2017-09-04T11:48:01.201Z,2632.50
2017-09-04T11:49:00.823Z,2328.75
2017-09-04T11:50:00.722Z,1963.13
2017-09-04T11:51:01.532Z,2086.88
2017-09-04T11:52:01.160Z,2660.63
2017-09-04T11:53:01.294Z,2981.25
2017-09-04T11:54:01.019Z,3751.88
2017-09-04T11:55:01.217Z,3808.13
2017-09-04T11:56:01.371Z,3656.25
2017-09-04T11:57:01.763Z,3774.38
2017-09-04T11:58:01.176Z,3892.50
2017-09-04T11:59:01.522Z,3571.88
2017-09-04T12:00:01.319Z,3841.88
2017-09-04T12:01:01.838Z,2193.75
2017-09-04T12:02:01.360Z,3538.13
2017-09-04T12:03:01.659Z,2902.50
2017-09-04T12:04:01.913Z,2964.38
2017-09-04T12:05:02.105Z,3937.50
2017-09-04T12:06:01.727Z,2626.88
2017-09-04T12:07:01.866Z,2323.13
2017-09-04T12:08:02.130Z,2317.50
2017-09-04T12:09:02.203Z,1400.63
2017-09-04T12:10:02.067Z,1361.25
2017-09-04T12:11:02.203Z,1378.13
2017-09-04T12:12:02.480Z,1243.13
2017-09-04T12:13:02.103Z,1248.75
2017-09-04T12:14:02.127Z,1181.25
2017-09-04T12:15:02.158Z,1051.88
2017-09-04T12:16:02.189Z,1192.50
2017-09-04T12:17:02.566Z,2874.38
2017-09-04T12:18:02.265Z,3566.25
2017-09-04T12:19:02.878Z,3476.25
2017-09-04T12:20:02.929Z,2756.25
2017-09-04T12:21:02.593Z,3268.13
2017-09-04T12:22:02.894Z,2345.63
2017-09-04T12:23:02.965Z,2131.88
2017-09-04T12:24:02.592Z,2486.25
2017-09-04T12:25:03.042Z,2323.13
2017-09-04T12:26:02.968Z,2160.00
2017-09-04T12:27:03.401Z,1867.50
2017-09-04T12:28:02.886Z,1676.25
2017-09-04T12:29:03.048Z,1541.25
2017-09-04T12:30:03.169Z,1462.50
2017-09-04T12:31:03.150Z,1440.00
2017-09-04T12:32:03.554Z,1366.88
2017-09-04T12:33:03.370Z,1338.75
2017-09-04T12:34:03.518Z,1299.38
2017-09-04T12:35:03.298Z,1305.00
2017-09-04T12:36:03.459Z,1321.88
2017-09-04T12:37:03.670Z,1271.25
2017-09-04T12:38:03.456Z,1254.38
2017-09-04T12:39:03.545Z,1226.25